Home > Products > Valid Products > TAF

000
FTUS44 KLUB 260520
TAFLBB
TAF
KLBB 260520Z 2606/2706 28006KT P6SM SKC
     FM261800 31011KT P6SM SKC=



000
FTUS44 KLUB 260520
TAFCDS
TAF
KCDS 260520Z 2606/2706 29008KT P6SM SKC
     FM261800 31012KT P6SM SKC
     FM270000 30008KT P6SM SKC=



000
FTUS44 KLUB 252320
TAFCDS
TAF
KCDS 252320Z 2600/2624 35014KT P6SM SKC
     FM260100 28008KT P6SM SKC
     FM261800 30011KT P6SM SKC=



000
FTUS44 KLUB 252320
TAFLBB
TAF
KLBB 252320Z 2600/2624 35009KT P6SM FEW350
     FM260100 29010KT P6SM SKC=



000
FTUS44 KLUB 251720
TAFCDS
TAF
KCDS 251720Z 2518/2618 33019G24KT P6SM SKC
     FM260000 30009KT P6SM SKC=



000
FTUS44 KLUB 251720
TAFLBB
TAF
KLBB 251720Z 2518/2618 34012KT P6SM FEW250
     FM252200 28007KT P6SM SKC=



000
FTUS44 KLUB 251120
TAFCDS
TAF
KCDS 251120Z 2512/2612 33011KT P6SM FEW250
     FM251700 33019G26KT P6SM FEW250
     FM260000 30009KT P6SM SKC=



000
FTUS44 KLUB 251120
TAFLBB
TAF
KLBB 251120Z 2512/2612 35011KT P6SM FEW250
     FM260000 28007KT P6SM SKC=



000
FTUS44 KLUB 250526
TAFLBB
TAF
KLBB 250526Z 2506/2606 31010KT P6SM SCT250
     FM251800 33013KT P6SM SCT250
     FM260000 28007KT P6SM SCT250=



000
FTUS44 KLUB 250526
TAFCDS
TAF
KCDS 250526Z 2506/2606 31010KT P6SM SCT250
     FM251800 33019KT P6SM SCT250
     FM260000 31009KT P6SM SCT250=



000
FTUS44 KLUB 242320
TAFCDS
TAF
KCDS 242320Z 2500/2524 26011KT P6SM SCT250
     FM251800 33019KT P6SM SCT250=



000
FTUS44 KLUB 242320
TAFLBB
TAF
KLBB 242320Z 2500/2524 26008KT P6SM SCT250
     FM251800 32012KT P6SM SCT250=



000
FTUS44 KLUB 241720
TAFCDS
TAF
KCDS 241720Z 2418/2518 30009KT P6SM FEW250=



000
FTUS44 KLUB 241720
TAFLBB
TAF
KLBB 241720Z 2418/2518 31010KT P6SM SCT250=



000
FTUS44 KLUB 241120
TAFLBB
TAF
KLBB 241120Z 2412/2512 31010KT P6SM SCT250=



000
FTUS44 KLUB 241120
TAFCDS
TAF
KCDS 241120Z 2412/2512 30009KT P6SM SKC=



000
FTUS44 KLUB 240535
TAFLBB
TAF
KLBB 240535Z 2406/2506 30009KT P6SM SKC=



000
FTUS44 KLUB 240535
TAFCDS
TAF
KCDS 240535Z 2406/2506 30009KT P6SM SKC=



000
FTUS44 KLUB 232320
TAFLBB
TAF
KLBB 232320Z 2400/2424 29010KT P6SM SKC=



000
FTUS44 KLUB 232320
TAFCDS
TAF
KCDS 232320Z 2400/2424 29009KT P6SM SKC=



000
FTUS44 KLUB 231720
TAFCDS
TAF
KCDS 231720Z 2318/2418 29009KT P6SM FEW120=



000
FTUS44 KLUB 231720
TAFLBB
TAF
KLBB 231720Z 2318/2418 27010KT P6SM FEW100=



000
FTUS44 KLUB 231120
TAFCDS
TAF
KCDS 231120Z 2312/2412 29008KT P6SM SCT120=



000
FTUS44 KLUB 231120
TAFLBB
TAF
KLBB 231120Z 2312/2412 29006KT P6SM SCT100
     FM231800 27012KT P6SM SKC=



    US Dept of Commerce
    National Oceanic and Atmospheric Administration
    National Weather Service
    1325 East West Highway
    Silver Spring, MD 20910
    Page Author: NWS Internet Services Team
Disclaimer
Information Quality
Credits
Glossary
Privacy Policy
Freedom of Information Act (FOIA)
About Us
Career Opportunities